Ana Sayfa
METAR-TAF:

METAR-TAF

Havaalanları :

Narrabri, Avustralya

Enlem: 30-19-09S, Boylam: 149-49-38E, yükseklik: 240 m

Güncel hava durumu gözlemi

Rapor saat 14:00 UTC de 31 dakika önce yapıldı.
Rüzgar kuzey/kuzeybatıdan 1 kt
Sıcaklık 9°C
Nem 81%
Basınç 1016 hPa
Görüş mesafesi 10 km veya daha fazla
2600 ft yükseklikte parçalı çok bulutlu
3100 ft yükseklikte parçalı çok bulutlu
4900 ft yükseklikte çok bulutlu

METAR: YNBR 081400Z AUTO 34001KT 9999 // BKN026 BKN031 OVC049 09/06 Q1016

Saat: 00:31 (14:31 UTC)


TAF: eksik

4.000'den fazla havaalanı için hava durumu gözlemleri ve tahminleri (METAR ve TAF raporları).

Kullanılabilir istasyonlar harita üzerinde sarı ve kırmızı noktalarla gösterilir.

İstasyonun adını görmek için fareyi noktanın üzerinde gezdirin.

Sonrasında hava gözlem ve tahminlerini görmek için tıklayın.

Haritayı değiştirmek için: yaklaştırmak için siyah artı işaretli yeşil düğmeye ve uzaklaştırmak için de eksi işaretli düğmeye hızla tıklayın; bitişik haritalar için yeşil okları kullanın.


METAR-TAF: